Time;durP1;ratioP1;P1;durP2;ratioP2;P2;SDS_P1;SDS_P2;PMS_P1;PMS_P2;Temp;Humidity;BMP_temperature;BMP_pressure;BME280_temperature;BME280_humidity;BME280_pressure;Samples;Min_cycle;Max_cycle;Signal;HPM_P1;HPM_P2
2023/11/05 00:02:03;;;;;;;5.93;2.30;;;;;;;;;;5040724;28;20433;-60
2023/11/05 00:04:30;;;;;;;7.13;2.20;;;;;;;;;;5042637;28;20419;-59
2023/11/05 00:06:57;;;;;;;5.55;2.00;;;;;;;;;;5037668;28;20417;-60
2023/11/05 00:09:25;;;;;;;7.30;2.13;;;;;;;;;;5037766;28;20418;-58
2023/11/05 00:11:52;;;;;;;8.77;2.33;;;;;;;;;;5042043;28;20412;-60
2023/11/05 00:14:19;;;;;;;4.72;2.10;;;;;;;;;;5043178;28;20411;-60
2023/11/05 00:16:46;;;;;;;5.80;1.95;;;;;;;;;;5043252;28;20971;-60
2023/11/05 00:19:13;;;;;;;5.95;2.08;;;;;;;;;;5044913;28;20462;-60
2023/11/05 00:21:40;;;;;;;8.00;2.30;;;;;;;;;;5043115;28;20419;-60
2023/11/05 00:24:07;;;;;;;5.00;2.00;;;;;;;;;;5043215;28;20493;-58
2023/11/05 00:26:36;;;;;;;5.57;2.20;;;;;;;;;;5045082;28;20463;-60
2023/11/05 00:29:03;;;;;;;7.53;2.20;;;;;;;;;;5042807;28;20501;-59
2023/11/05 00:31:30;;;;;;;4.68;2.00;;;;;;;;;;5042927;28;20415;-60
2023/11/05 00:33:57;;;;;;;6.55;2.00;;;;;;;;;;5044772;28;20903;-60
2023/11/05 00:36:24;;;;;;;10.02;2.38;;;;;;;;;;5040469;28;20484;-60
2023/11/05 00:38:55;;;;;;;5.53;2.38;;;;;;;;;;5042291;28;20468;-60
2023/11/05 00:41:22;;;;;;;7.57;2.40;;;;;;;;;;5041930;28;20472;-60
2023/11/05 00:43:50;;;;;;;9.40;2.58;;;;;;;;;;5044078;28;20499;-60
2023/11/05 00:46:17;;;;;;;7.68;2.22;;;;;;;;;;5044052;28;20471;-59
2023/11/05 00:48:44;;;;;;;9.80;2.53;;;;;;;;;;5041808;28;20476;-59
2023/11/05 00:51:11;;;;;;;9.10;2.33;;;;;;;;;;5043881;28;20494;-60
2023/11/05 00:53:38;;;;;;;7.18;2.38;;;;;;;;;;5043628;28;20405;-60
2023/11/05 00:56:06;;;;;;;8.07;2.63;;;;;;;;;;5040991;28;20489;-60
2023/11/05 00:58:33;;;;;;;7.20;2.22;;;;;;;;;;5041674;28;20809;-60
2023/11/05 01:01:01;;;;;;;6.47;2.20;;;;;;;;;;5042637;28;20418;-60
2023/11/05 01:03:28;;;;;;;6.97;2.22;;;;;;;;;;5044312;28;20424;-60
2023/11/05 01:05:55;;;;;;;6.37;2.23;;;;;;;;;;5040701;28;20413;-60
2023/11/05 01:08:22;;;;;;;8.93;2.65;;;;;;;;;;5040180;28;20415;-60
2023/11/05 01:10:50;;;;;;;6.25;2.65;;;;;;;;;;5043828;28;20409;-60
2023/11/05 01:13:17;;;;;;;6.78;2.47;;;;;;;;;;5041378;28;20442;-60
2023/11/05 01:15:44;;;;;;;7.10;2.50;;;;;;;;;;5042363;28;20433;-59
2023/11/05 01:18:12;;;;;;;7.85;2.28;;;;;;;;;;5043740;28;20883;-60
2023/11/05 01:20:39;;;;;;;6.65;1.90;;;;;;;;;;5041714;28;20465;-60
2023/11/05 01:23:06;;;;;;;10.23;2.93;;;;;;;;;;5042068;28;20417;-60
2023/11/05 01:25:33;;;;;;;8.32;2.50;;;;;;;;;;5043741;28;20413;-59
2023/11/05 01:28:00;;;;;;;8.52;2.42;;;;;;;;;;5041123;28;20485;-59
2023/11/05 01:30:27;;;;;;;7.15;2.20;;;;;;;;;;5042565;28;20426;-60
2023/11/05 01:32:54;;;;;;;7.53;2.15;;;;;;;;;;5044973;28;20941;-60
2023/11/05 01:35:23;;;;;;;7.43;2.63;;;;;;;;;;5040248;28;20434;-60
2023/11/05 01:37:50;;;;;;;12.05;2.72;;;;;;;;;;5041589;28;20419;-60
2023/11/05 01:40:17;;;;;;;8.68;2.67;;;;;;;;;;5040825;28;20418;-60
2023/11/05 01:42:44;;;;;;;10.70;2.65;;;;;;;;;;5043687;28;20434;-60
2023/11/05 01:45:11;;;;;;;11.32;2.95;;;;;;;;;;5045215;28;20453;-60
2023/11/05 01:47:38;;;;;;;6.97;2.35;;;;;;;;;;5040480;28;20817;-60
2023/11/05 01:50:06;;;;;;;8.57;2.58;;;;;;;;;;5043324;28;20417;-60
2023/11/05 01:52:34;;;;;;;12.52;2.78;;;;;;;;;;5041707;28;20912;-59
2023/11/05 01:55:03;;;;;;;7.05;2.38;;;;;;;;;;5040423;28;20465;-60
2023/11/05 01:57:30;;;;;;;8.70;2.53;;;;;;;;;;5040354;28;20510;-60
2023/11/05 01:59:57;;;;;;;7.85;2.30;;;;;;;;;;5048693;28;20417;-59
2023/11/05 02:02:24;;;;;;;10.60;2.42;;;;;;;;;;5043953;28;20467;-60
2023/11/05 02:04:51;;;;;;;9.82;2.80;;;;;;;;;;5040658;28;20407;-60
2023/11/05 02:07:18;;;;;;;7.03;2.58;;;;;;;;;;5038757;28;20402;-60
2023/11/05 02:09:47;;;;;;;8.20;2.58;;;;;;;;;;5042693;28;20471;-60
2023/11/05 02:12:14;;;;;;;9.05;2.85;;;;;;;;;;5040507;28;20797;-60
2023/11/05 02:14:41;;;;;;;9.03;2.60;;;;;;;;;;5041606;28;21058;-60
2023/11/05 02:17:08;;;;;;;8.00;2.40;;;;;;;;;;5042630;28;20429;-60
2023/11/05 02:19:35;;;;;;;14.00;3.33;;;;;;;;;;5040258;28;20414;-60
2023/11/05 02:22:03;;;;;;;8.75;2.65;;;;;;;;;;5041384;28;20463;-60
2023/11/05 02:24:32;;;;;;;10.10;2.67;;;;;;;;;;5042663;28;20516;-59
2023/11/05 02:26:59;;;;;;;9.43;2.65;;;;;;;;;;5036757;28;20494;-59
2023/11/05 02:29:27;;;;;;;9.93;2.75;;;;;;;;;;5040915;28;20896;-60
2023/11/05 02:31:54;;;;;;;9.50;2.78;;;;;;;;;;5042143;28;20421;-58
2023/11/05 02:34:21;;;;;;;13.85;3.00;;;;;;;;;;5042044;28;20804;-60
2023/11/05 02:36:48;;;;;;;10.27;2.28;;;;;;;;;;5039463;28;20483;-59
2023/11/05 02:39:15;;;;;;;11.07;2.30;;;;;;;;;;5040569;28;20984;-60
2023/11/05 02:41:44;;;;;;;10.55;2.60;;;;;;;;;;5042455;28;20421;-59
2023/11/05 02:44:11;;;;;;;8.10;2.47;;;;;;;;;;5041042;28;20418;-58
2023/11/05 02:46:38;;;;;;;9.67;2.50;;;;;;;;;;5039859;28;20407;-59
2023/11/05 02:49:07;;;;;;;10.82;2.22;;;;;;;;;;5042029;28;20483;-60
2023/11/05 02:51:34;;;;;;;7.63;2.42;;;;;;;;;;5041176;28;20426;-58
2023/11/05 02:54:02;;;;;;;7.13;2.70;;;;;;;;;;5039715;28;20415;-60
2023/11/05 02:56:29;;;;;;;7.37;2.77;;;;;;;;;;5035886;28;20426;-59
2023/11/05 02:58:57;;;;;;;8.15;2.50;;;;;;;;;;5040800;28;20401;-60
2023/11/05 03:01:24;;;;;;;11.23;3.17;;;;;;;;;;5041800;28;20823;-59
2023/11/05 03:03:51;;;;;;;11.15;2.70;;;;;;;;;;5039209;28;20414;-58
2023/11/05 03:06:19;;;;;;;9.68;2.40;;;;;;;;;;5041295;28;20719;-60
2023/11/05 03:08:47;;;;;;;9.93;2.50;;;;;;;;;;5041210;28;20896;-60
2023/11/05 03:11:14;;;;;;;10.90;2.78;;;;;;;;;;5039269;28;20568;-59
2023/11/05 03:13:41;;;;;;;10.70;2.65;;;;;;;;;;5040009;28;20409;-60
2023/11/05 03:16:11;;;;;;;8.23;2.38;;;;;;;;;;5041342;28;20456;-60
2023/11/05 03:18:39;;;;;;;6.60;2.30;;;;;;;;;;5039432;28;20411;-60
2023/11/05 03:21:06;;;;;;;6.88;2.33;;;;;;;;;;5040191;28;20413;-60
2023/11/05 03:23:33;;;;;;;8.10;2.57;;;;;;;;;;5041949;28;20405;-59
2023/11/05 03:26:00;;;;;;;9.93;2.83;;;;;;;;;;5039515;28;20841;-59
2023/11/05 03:28:27;;;;;;;8.23;2.50;;;;;;;;;;5040100;28;20950;-58
2023/11/05 03:30:54;;;;;;;7.70;2.33;;;;;;;;;;5041421;28;20421;-59
2023/11/05 03:33:23;;;;;;;8.18;2.55;;;;;;;;;;5038749;28;20411;-59
2023/11/05 03:35:51;;;;;;;6.75;2.40;;;;;;;;;;5042319;28;20445;-60
2023/11/05 03:38:18;;;;;;;6.57;2.83;;;;;;;;;;5037740;28;20421;-59
2023/11/05 03:40:45;;;;;;;7.65;2.40;;;;;;;;;;5041168;28;20417;-59
2023/11/05 03:43:12;;;;;;;5.18;2.28;;;;;;;;;;5040001;28;20423;-60
2023/11/05 03:45:39;;;;;;;7.10;2.60;;;;;;;;;;5038762;28;20423;-59
2023/11/05 03:48:07;;;;;;;7.97;2.80;;;;;;;;;;5041018;28;20410;-60
2023/11/05 03:50:36;;;;;;;7.50;2.70;;;;;;;;;;5040190;28;20418;-60
2023/11/05 03:53:03;;;;;;;4.97;2.40;;;;;;;;;;5038401;28;20959;-59
2023/11/05 03:55:30;;;;;;;5.53;2.40;;;;;;;;;;5040892;28;20409;-59
2023/11/05 03:57:57;;;;;;;6.75;2.20;;;;;;;;;;5039767;28;20423;-59
2023/11/05 04:00:24;;;;;;;8.23;2.50;;;;;;;;;;5038843;28;20415;-58
2023/11/05 04:02:51;;;;;;;8.00;2.80;;;;;;;;;;5041049;28;20409;-58
2023/11/05 04:05:18;;;;;;;5.18;2.03;;;;;;;;;;5039784;28;20747;-59
2023/11/05 04:07:46;;;;;;;6.63;2.33;;;;;;;;;;5038503;28;20409;-60
2023/11/05 04:10:15;;;;;;;5.72;1.90;;;;;;;;;;5038260;28;20442;-58
2023/11/05 04:12:42;;;;;;;5.32;2.40;;;;;;;;;;5039415;28;20409;-59
2023/11/05 04:15:09;;;;;;;6.75;2.22;;;;;;;;;;5041172;28;20888;-60
2023/11/05 04:17:37;;;;;;;7.85;2.28;;;;;;;;;;5035031;28;20454;-60
2023/11/05 04:20:05;;;;;;;7.50;2.20;;;;;;;;;;5039270;28;20409;-58
2023/11/05 04:22:32;;;;;;;4.65;1.95;;;;;;;;;;5040975;28;20967;-60
2023/11/05 04:25:00;;;;;;;4.03;1.58;;;;;;;;;;5034982;28;20820;-59
2023/11/05 04:27:27;;;;;;;4.82;2.15;;;;;;;;;;5039258;28;20779;-59
2023/11/05 04:29:54;;;;;;;4.63;2.15;;;;;;;;;;5041130;28;20502;-60
2023/11/05 04:32:23;;;;;;;4.38;2.10;;;;;;;;;;5034683;28;20775;-60
2023/11/05 04:34:50;;;;;;;3.28;1.92;;;;;;;;;;5039209;28;20414;-60
2023/11/05 04:37:18;;;;;;;3.22;1.63;;;;;;;;;;5037205;28;20836;-59
2023/11/05 04:39:44;;;;;;;5.25;2.10;;;;;;;;;;5034890;28;20415;-60
2023/11/05 04:42:13;;;;;;;3.95;2.08;;;;;;;;;;5039438;28;20490;-61
2023/11/05 04:44:40;;;;;;;3.40;1.40;;;;;;;;;;5041039;28;20413;-60
2023/11/05 04:47:07;;;;;;;3.53;1.90;;;;;;;;;;5038646;28;20407;-60
2023/11/05 04:49:35;;;;;;;5.45;1.98;;;;;;;;;;5039127;28;20422;-60
2023/11/05 04:52:02;;;;;;;5.88;2.00;;;;;;;;;;5041592;28;20413;-60
2023/11/05 04:54:29;;;;;;;3.17;1.70;;;;;;;;;;5038532;28;20506;-60
2023/11/05 04:56:56;;;;;;;4.28;1.63;;;;;;;;;;5039284;28;20452;-59
2023/11/05 04:59:24;;;;;;;3.08;1.60;;;;;;;;;;5043593;28;20504;-60
2023/11/05 05:01:51;;;;;;;4.30;1.92;;;;;;;;;;5041512;28;20411;-60
2023/11/05 05:04:18;;;;;;;3.27;1.60;;;;;;;;;;5042819;28;20459;-60
2023/11/05 05:06:49;;;;;;;3.45;1.70;;;;;;;;;;5040823;28;20413;-60
2023/11/05 05:09:16;;;;;;;4.30;1.80;;;;;;;;;;5042545;28;20832;-60
2023/11/05 05:11:43;;;;;;;4.63;1.40;;;;;;;;;;5042401;28;20819;-60
2023/11/05 05:14:10;;;;;;;2.95;1.30;;;;;;;;;;5043981;28;20475;-58
2023/11/05 05:16:39;;;;;;;3.20;1.90;;;;;;;;;;5041397;28;21076;-59
2023/11/05 05:19:06;;;;;;;3.92;1.45;;;;;;;;;;5040325;28;20423;-60
2023/11/05 05:21:33;;;;;;;2.88;1.38;;;;;;;;;;5047350;28;20424;-59
2023/11/05 05:24:00;;;;;;;3.30;1.45;;;;;;;;;;5041699;28;20419;-58
2023/11/05 05:26:27;;;;;;;4.00;1.42;;;;;;;;;;5048680;28;20862;-59
2023/11/05 05:28:54;;;;;;;2.75;1.35;;;;;;;;;;5041033;28;20414;-60
2023/11/05 05:31:21;;;;;;;2.90;1.30;;;;;;;;;;5043538;28;20409;-58
2023/11/05 05:33:49;;;;;;;3.42;1.42;;;;;;;;;;5044222;28;20899;-59
2023/11/05 05:36:16;;;;;;;1.40;0.95;;;;;;;;;;5040677;28;20414;-60
2023/11/05 05:38:43;;;;;;;2.85;1.25;;;;;;;;;;5039143;28;20809;-60
2023/11/05 05:41:10;;;;;;;3.83;1.50;;;;;;;;;;5042586;28;20464;-60
2023/11/05 05:43:37;;;;;;;3.38;1.30;;;;;;;;;;5043398;28;20405;-59
2023/11/05 05:46:05;;;;;;;3.38;1.60;;;;;;;;;;5045339;28;20479;-60
2023/11/05 05:48:32;;;;;;;2.97;1.50;;;;;;;;;;5055560;28;20434;-59
2023/11/05 05:51:01;;;;;;;4.85;1.60;;;;;;;;;;5044612;28;20455;-63
2023/11/05 05:53:28;;;;;;;2.53;1.20;;;;;;;;;;5040806;28;20465;-59
2023/11/05 05:55:55;;;;;;;2.60;1.20;;;;;;;;;;5041925;28;20421;-60
2023/11/05 05:58:22;;;;;;;2.92;1.20;;;;;;;;;;5042963;28;20838;-59
2023/11/05 06:00:50;;;;;;;3.22;1.50;;;;;;;;;;5040270;28;20782;-59
2023/11/05 06:03:17;;;;;;;3.22;1.50;;;;;;;;;;5041923;28;20409;-59
2023/11/05 06:05:44;;;;;;;2.83;1.10;;;;;;;;;;5041410;28;20880;-60
2023/11/05 06:08:13;;;;;;;3.00;1.52;;;;;;;;;;5039607;28;20996;-58
2023/11/05 06:10:40;;;;;;;2.20;1.33;;;;;;;;;;5040650;28;20411;-60
2023/11/05 06:13:08;;;;;;;2.22;1.10;;;;;;;;;;5040520;28;20591;-59
2023/11/05 06:15:35;;;;;;;2.93;1.80;;;;;;;;;;5036422;28;20523;-60
2023/11/05 06:18:02;;;;;;;3.50;1.50;;;;;;;;;;5041559;28;20455;-60
2023/11/05 06:20:29;;;;;;;4.82;1.20;;;;;;;;;;5042885;28;20475;-60
2023/11/05 06:22:57;;;;;;;3.30;1.35;;;;;;;;;;5036356;28;20731;-60
2023/11/05 06:25:25;;;;;;;1.95;1.20;;;;;;;;;;5041511;28;20450;-59
2023/11/05 06:27:53;;;;;;;2.67;1.00;;;;;;;;;;5042363;28;20466;-60
2023/11/05 06:30:21;;;;;;;3.45;1.50;;;;;;;;;;5042712;28;20418;-60
2023/11/05 06:32:48;;;;;;;2.03;1.33;;;;;;;;;;5041257;28;20908;-59
2023/11/05 06:35:15;;;;;;;1.65;1.02;;;;;;;;;;5039976;28;20410;-59
2023/11/05 06:37:42;;;;;;;2.65;1.30;;;;;;;;;;5035377;28;20841;-59
2023/11/05 06:40:10;;;;;;;4.28;1.38;;;;;;;;;;5041351;28;20409;-59
2023/11/05 06:42:39;;;;;;;3.10;1.20;;;;;;;;;;5042011;28;20442;-59
2023/11/05 06:45:06;;;;;;;1.83;0.80;;;;;;;;;;5042300;28;20419;-59
2023/11/05 06:47:33;;;;;;;2.33;1.10;;;;;;;;;;5042629;28;20410;-59
2023/11/05 06:50:00;;;;;;;3.00;1.40;;;;;;;;;;5038954;28;20419;-59
2023/11/05 06:52:27;;;;;;;2.92;1.38;;;;;;;;;;5036185;28;20481;-60
2023/11/05 06:54:56;;;;;;;1.80;1.30;;;;;;;;;;5040841;28;20433;-59
2023/11/05 06:57:23;;;;;;;2.53;1.33;;;;;;;;;;5042172;28;20433;-59
2023/11/05 06:59:52;;;;;;;1.90;1.20;;;;;;;;;;5035498;28;20775;-60
2023/11/05 07:02:19;;;;;;;1.67;1.15;;;;;;;;;;5040062;28;20413;-60
2023/11/05 07:04:46;;;;;;;1.77;0.95;;;;;;;;;;5040401;28;20413;-60
2023/11/05 07:07:13;;;;;;;2.50;0.93;;;;;;;;;;5040983;28;20821;-60
2023/11/05 07:09:40;;;;;;;3.03;1.45;;;;;;;;;;5040829;28;20494;-60
2023/11/05 07:12:08;;;;;;;2.40;1.45;;;;;;;;;;5039929;28;20415;-60
2023/11/05 07:14:35;;;;;;;2.55;1.20;;;;;;;;;;5035698;28;20445;-60
2023/11/05 07:17:04;;;;;;;2.10;1.33;;;;;;;;;;5040619;28;20448;-60
2023/11/05 07:19:31;;;;;;;3.67;1.20;;;;;;;;;;5042304;28;20858;-60
2023/11/05 07:21:58;;;;;;;3.50;1.50;;;;;;;;;;5036051;28;20407;-60
2023/11/05 07:24:25;;;;;;;3.22;1.10;;;;;;;;;;5040222;28;20408;-59
2023/11/05 07:26:52;;;;;;;1.53;1.23;;;;;;;;;;5041551;28;20417;-60
2023/11/05 07:29:19;;;;;;;2.33;1.00;;;;;;;;;;5035234;28;20415;-60
2023/11/05 07:31:46;;;;;;;2.03;1.35;;;;;;;;;;5040314;28;20412;-60
2023/11/05 07:34:15;;;;;;;2.65;2.00;;;;;;;;;;5041098;28;20413;-60
2023/11/05 07:36:42;;;;;;;2.85;1.10;;;;;;;;;;5042370;28;20417;-60
2023/11/05 07:39:10;;;;;;;4.27;1.50;;;;;;;;;;5039185;28;20425;-60
2023/11/05 07:41:37;;;;;;;2.15;1.20;;;;;;;;;;5041203;28;20887;-60
2023/11/05 07:44:05;;;;;;;1.70;1.10;;;;;;;;;;5035107;28;20399;-60
2023/11/05 07:46:32;;;;;;;2.15;1.33;;;;;;;;;;5040098;28;20452;-60
2023/11/05 07:48:59;;;;;;;2.65;1.30;;;;;;;;;;5040994;28;20413;-60
2023/11/05 07:51:27;;;;;;;1.67;1.30;;;;;;;;;;5038568;28;20496;-60
2023/11/05 07:53:55;;;;;;;2.55;1.50;;;;;;;;;;5039973;28;20413;-60
2023/11/05 07:56:22;;;;;;;3.53;1.50;;;;;;;;;;5041325;28;20737;-60
2023/11/05 07:58:50;;;;;;;1.48;1.15;;;;;;;;;;5035170;28;20500;-60
2023/11/05 08:01:17;;;;;;;2.03;1.10;;;;;;;;;;5040088;28;20508;-60
2023/11/05 08:03:44;;;;;;;2.78;1.40;;;;;;;;;;5041092;28;20923;-60
2023/11/05 08:06:11;;;;;;;2.70;1.40;;;;;;;;;;5036602;28;20403;-60
2023/11/05 08:08:39;;;;;;;2.40;1.40;;;;;;;;;;5038437;28;20465;-59
2023/11/05 08:11:06;;;;;;;3.53;1.40;;;;;;;;;;5038732;28;20414;-60
2023/11/05 08:13:33;;;;;;;2.20;1.60;;;;;;;;;;5034146;28;20469;-60
2023/11/05 08:16:02;;;;;;;2.60;1.40;;;;;;;;;;5039944;28;20884;-60
2023/11/05 08:18:29;;;;;;;2.10;1.20;;;;;;;;;;5040585;28;20429;-60
2023/11/05 08:20:56;;;;;;;2.80;1.40;;;;;;;;;;5034499;28;20767;-60
2023/11/05 08:23:23;;;;;;;2.40;1.55;;;;;;;;;;5039895;28;20413;-59
2023/11/05 08:25:51;;;;;;;2.65;1.45;;;;;;;;;;5040596;28;20405;-59
2023/11/05 08:28:18;;;;;;;2.58;1.95;;;;;;;;;;5034173;28;20403;-59
2023/11/05 08:30:45;;;;;;;2.83;1.80;;;;;;;;;;5039803;28;20412;-60
2023/11/05 08:33:12;;;;;;;2.90;1.73;;;;;;;;;;5038453;28;20506;-59
2023/11/05 08:35:39;;;;;;;2.40;1.60;;;;;;;;;;5044736;28;20423;-60
2023/11/05 08:38:06;;;;;;;3.30;1.80;;;;;;;;;;5043547;28;20899;-60
2023/11/05 08:40:33;;;;;;;2.83;1.90;;;;;;;;;;5044017;28;20410;-61
2023/11/05 08:43:02;;;;;;;2.72;2.10;;;;;;;;;;5041616;28;20419;-60
2023/11/05 08:45:29;;;;;;;2.55;1.85;;;;;;;;;;5043450;28;20486;-58
2023/11/05 08:47:57;;;;;;;3.17;2.10;;;;;;;;;;5044068;28;20405;-60
2023/11/05 08:50:25;;;;;;;2.17;1.75;;;;;;;;;;5041769;28;20406;-60
2023/11/05 08:52:53;;;;;;;3.55;1.77;;;;;;;;;;5043476;28;20432;-60
2023/11/05 08:55:28;;;;;;;2.40;2.00;;;;;;;;;;5044075;28;20874;-59
2023/11/05 08:57:55;;;;;;;3.50;2.38;;;;;;;;;;5039444;28;20948;-60
2023/11/05 09:00:24;;;;;;;4.28;1.85;;;;;;;;;;5042421;28;20826;-60
2023/11/05 09:02:51;;;;;;;2.73;1.97;;;;;;;;;;5044203;28;20837;-61
2023/11/05 09:05:22;;;;;;;2.83;1.63;;;;;;;;;;5046078;28;20471;-62
2023/11/05 09:07:49;;;;;;;2.70;2.13;;;;;;;;;;5041850;28;20409;-62
2023/11/05 09:10:16;;;;;;;9.35;2.42;;;;;;;;;;5041418;28;20403;-62
2023/11/05 09:12:43;;;;;;;2.05;1.80;;;;;;;;;;5042684;28;20417;-62
2023/11/05 09:15:11;;;;;;;3.73;2.20;;;;;;;;;;5044067;28;20823;-62
2023/11/05 09:17:40;;;;;;;2.20;2.00;;;;;;;;;;5037645;28;20737;-62
2023/11/05 09:20:08;;;;;;;4.40;3.03;;;;;;;;;;5042429;28;20497;-62
2023/11/05 09:22:36;;;;;;;3.75;2.60;;;;;;;;;;5043937;28;20421;-62
2023/11/05 09:25:04;;;;;;;4.53;3.67;;;;;;;;;;5033366;28;20968;-61
2023/11/05 09:27:31;;;;;;;3.72;2.85;;;;;;;;;;5040123;28;20414;-61
2023/11/05 09:29:58;;;;;;;3.38;2.65;;;;;;;;;;5036328;28;20447;-61
2023/11/05 09:32:26;;;;;;;3.13;2.72;;;;;;;;;;5040115;28;20546;-64
2023/11/05 09:34:54;;;;;;;3.53;3.22;;;;;;;;;;5040748;28;20494;-63
2023/11/05 09:37:21;;;;;;;5.18;3.40;;;;;;;;;;5038148;28;20895;-64
2023/11/05 09:39:48;;;;;;;3.22;2.67;;;;;;;;;;5041533;28;20482;-63
2023/11/05 09:42:18;;;;;;;5.22;3.35;;;;;;;;;;5037418;28;20407;-63
2023/11/05 09:44:45;;;;;;;4.53;3.28;;;;;;;;;;5043802;28;20539;-64
2023/11/05 09:47:13;;;;;;;7.03;4.97;;;;;;;;;;5040337;28;20758;-64
2023/11/05 09:49:40;;;;;;;5.50;3.83;;;;;;;;;;5040458;28;20414;-62
2023/11/05 09:52:13;;;;;;;5.25;3.55;;;;;;;;;;5042593;28;20496;-62
2023/11/05 09:54:43;;;;;;;5.38;4.07;;;;;;;;;;5041068;28;20422;-61
2023/11/05 09:57:10;;;;;;;5.78;3.45;;;;;;;;;;5038710;28;20446;-61
2023/11/05 09:59:43;;;;;;;5.43;3.70;;;;;;;;;;5041736;28;20850;-61
2023/11/05 10:02:10;;;;;;;5.70;3.35;;;;;;;;;;5041943;28;20451;-62
2023/11/05 10:04:37;;;;;;;4.97;3.67;;;;;;;;;;5038518;28;20423;-62
2023/11/05 10:07:04;;;;;;;3.77;2.70;;;;;;;;;;5039162;28;20516;-62
2023/11/05 10:09:33;;;;;;;3.17;2.33;;;;;;;;;;5040995;28;20466;-62
2023/11/05 10:12:00;;;;;;;3.78;2.50;;;;;;;;;;5039341;28;20901;-62
2023/11/05 10:14:27;;;;;;;5.25;2.70;;;;;;;;;;5041062;28;20448;-61
2023/11/05 10:16:55;;;;;;;3.90;2.67;;;;;;;;;;5038266;28;20426;-61
2023/11/05 10:19:22;;;;;;;4.60;2.90;;;;;;;;;;5042146;28;20516;-61
2023/11/05 10:21:49;;;;;;;6.33;3.60;;;;;;;;;;5034017;28;20510;-61
2023/11/05 10:24:16;;;;;;;6.00;2.90;;;;;;;;;;5035296;28;20493;-61
2023/11/05 10:26:49;;;;;;;4.35;2.90;;;;;;;;;;5041879;28;20417;-61
2023/11/05 10:29:17;;;;;;;5.22;3.10;;;;;;;;;;5039082;28;20486;-62
2023/11/05 10:31:45;;;;;;;4.38;3.20;;;;;;;;;;5034644;28;20414;-62
2023/11/05 10:34:13;;;;;;;4.38;2.80;;;;;;;;;;5038116;28;20419;-62
2023/11/05 10:36:44;;;;;;;4.15;2.58;;;;;;;;;;5039655;28;20413;-62
2023/11/05 10:39:11;;;;;;;4.63;2.90;;;;;;;;;;5045514;28;20425;-62
2023/11/05 10:41:38;;;;;;;7.10;3.67;;;;;;;;;;5038445;28;20463;-62
2023/11/05 10:44:07;;;;;;;4.15;2.90;;;;;;;;;;5041071;28;20407;-62
2023/11/05 10:46:34;;;;;;;3.75;2.45;;;;;;;;;;5040494;28;20410;-62
2023/11/05 10:49:01;;;;;;;3.67;2.25;;;;;;;;;;5040304;28;20464;-62
2023/11/05 10:51:28;;;;;;;3.85;2.20;;;;;;;;;;5039755;28;20411;-62
2023/11/05 10:53:55;;;;;;;3.63;2.28;;;;;;;;;;5041868;28;20445;-63
2023/11/05 10:56:27;;;;;;;4.72;2.67;;;;;;;;;;5038521;28;20419;-64
2023/11/05 10:58:55;;;;;;;3.17;1.83;;;;;;;;;;5039065;28;20514;-64
2023/11/05 11:01:28;;;;;;;1.92;1.52;;;;;;;;;;5036050;28;20828;-63
2023/11/05 11:03:58;;;;;;;3.53;1.80;;;;;;;;;;5039463;28;20445;-63
2023/11/05 11:06:25;;;;;;;3.33;1.98;;;;;;;;;;5034462;28;20751;-63
2023/11/05 11:09:07;;;;;;;3.90;1.80;;;;;;;;;;5035517;28;20444;-64
2023/11/05 11:11:36;;;;;;;2.78;2.17;;;;;;;;;;5043997;28;20948;-63
2023/11/05 11:14:04;;;;;;;3.60;1.90;;;;;;;;;;5040130;28;20414;-62
2023/11/05 11:16:33;;;;;;;3.08;2.10;;;;;;;;;;5039830;28;20430;-62
2023/11/05 11:19:05;;;;;;;3.53;2.45;;;;;;;;;;5042785;28;20903;-65
2023/11/05 11:21:33;;;;;;;4.97;2.45;;;;;;;;;;5041748;28;20407;-64
2023/11/05 11:24:04;;;;;;;5.72;2.55;;;;;;;;;;5040431;28;20424;-63
2023/11/05 11:26:36;;;;;;;4.15;2.28;;;;;;;;;;5038248;28;20502;-64
2023/11/05 11:29:04;;;;;;;5.57;2.92;;;;;;;;;;5040611;28;20497;-65
2023/11/05 11:31:34;;;;;;;3.60;2.53;;;;;;;;;;5041013;28;20418;-64
2023/11/05 11:34:01;;;;;;;4.50;2.47;;;;;;;;;;5038054;28;20465;-64
2023/11/05 11:36:28;;;;;;;4.57;2.53;;;;;;;;;;5040446;28;20418;-63
2023/11/05 11:38:55;;;;;;;3.70;2.10;;;;;;;;;;5038577;28;20979;-64
2023/11/05 11:41:22;;;;;;;4.07;2.10;;;;;;;;;;5038222;28;20998;-64
2023/11/05 11:43:50;;;;;;;3.55;2.30;;;;;;;;;;5040055;28;20779;-62
2023/11/05 11:46:21;;;;;;;5.20;2.45;;;;;;;;;;5039765;28;20471;-61
2023/11/05 11:48:51;;;;;;;4.63;3.00;;;;;;;;;;5032758;28;20405;-62
2023/11/05 11:51:19;;;;;;;4.30;2.67;;;;;;;;;;5037384;28;20471;-62
2023/11/05 11:53:46;;;;;;;5.85;2.90;;;;;;;;;;5040809;28;20467;-63
2023/11/05 11:56:14;;;;;;;3.85;2.70;;;;;;;;;;5037898;28;20411;-63
2023/11/05 11:58:42;;;;;;;4.03;2.70;;;;;;;;;;5038576;28;20424;-62
2023/11/05 12:01:13;;;;;;;5.40;2.90;;;;;;;;;;5040371;28;20414;-62
2023/11/05 12:03:40;;;;;;;5.28;3.22;;;;;;;;;;5040589;28;20417;-62
2023/11/05 12:06:09;;;;;;;7.60;4.10;;;;;;;;;;5041629;28;20410;-63
2023/11/05 12:08:37;;;;;;;4.75;2.85;;;;;;;;;;5041856;28;20408;-63
2023/11/05 12:11:07;;;;;;;5.50;3.65;;;;;;;;;;5045364;28;20486;-64
2023/11/05 12:13:35;;;;;;;5.35;2.90;;;;;;;;;;5044529;28;20483;-62
2023/11/05 12:16:03;;;;;;;4.18;2.25;;;;;;;;;;5048978;28;20856;-63
2023/11/05 12:18:31;;;;;;;7.30;2.83;;;;;;;;;;5043006;28;20414;-64
2023/11/05 12:20:58;;;;;;;5.72;3.00;;;;;;;;;;5041588;28;20451;-62
2023/11/05 12:23:27;;;;;;;4.47;2.17;;;;;;;;;;5044047;28;20413;-63
2023/11/05 12:25:58;;;;;;;4.38;2.70;;;;;;;;;;5043274;28;20448;-62
2023/11/05 12:28:25;;;;;;;4.18;2.60;;;;;;;;;;5043966;28;20415;-62
2023/11/05 12:30:52;;;;;;;4.40;2.20;;;;;;;;;;5044136;28;20514;-62
2023/11/05 12:33:23;;;;;;;2.53;2.03;;;;;;;;;;5043585;28;20417;-61
2023/11/05 12:35:50;;;;;;;3.33;2.00;;;;;;;;;;5039497;28;20990;-62
2023/11/05 12:38:17;;;;;;;5.32;2.60;;;;;;;;;;5040029;28;20413;-62
2023/11/05 12:40:45;;;;;;;5.15;2.10;;;;;;;;;;5043535;28;20425;-62
2023/11/05 12:43:12;;;;;;;3.65;2.53;;;;;;;;;;5041289;28;20418;-61
2023/11/05 12:45:39;;;;;;;4.75;2.70;;;;;;;;;;5042661;28;20428;-62
2023/11/05 12:48:07;;;;;;;7.50;3.80;;;;;;;;;;5043670;28;20413;-62
2023/11/05 12:50:34;;;;;;;6.07;3.90;;;;;;;;;;5033511;28;20415;-65
2023/11/05 12:53:01;;;;;;;6.10;3.78;;;;;;;;;;5041701;28;20458;-61
2023/11/05 12:55:30;;;;;;;6.67;4.10;;;;;;;;;;5037786;28;20465;-61
2023/11/05 12:57:59;;;;;;;5.53;3.60;;;;;;;;;;5036466;28;20423;-61
2023/11/05 13:00:26;;;;;;;7.93;4.50;;;;;;;;;;5038917;28;20520;-61
2023/11/05 13:02:53;;;;;;;5.10;3.72;;;;;;;;;;5044410;28;20844;-60
2023/11/05 13:05:21;;;;;;;6.72;4.43;;;;;;;;;;5041944;28;20409;-61
2023/11/05 13:07:49;;;;;;;6.53;4.45;;;;;;;;;;5039237;28;20423;-62
2023/11/05 13:10:17;;;;;;;10.20;4.70;;;;;;;;;;5038995;28;20449;-61
2023/11/05 13:12:44;;;;;;;8.27;4.97;;;;;;;;;;5039895;28;20415;-61
2023/11/05 13:15:13;;;;;;;5.93;4.05;;;;;;;;;;5040244;28;20791;-61
2023/11/05 13:17:40;;;;;;;8.02;4.57;;;;;;;;;;5038753;28;20490;-59
2023/11/05 13:20:09;;;;;;;7.32;4.90;;;;;;;;;;5040644;28;20826;-62
2023/11/05 13:22:37;;;;;;;7.15;4.40;;;;;;;;;;5041908;28;20417;-62
2023/11/05 13:25:06;;;;;;;7.25;4.57;;;;;;;;;;5043429;28;20876;-62
2023/11/05 13:27:33;;;;;;;10.85;4.30;;;;;;;;;;5041272;28;20825;-62
2023/11/05 13:30:00;;;;;;;8.27;4.80;;;;;;;;;;5040173;28;20498;-63
2023/11/05 13:32:28;;;;;;;8.05;5.28;;;;;;;;;;5039246;28;20419;-62
2023/11/05 13:34:56;;;;;;;10.20;5.78;;;;;;;;;;5043601;28;20417;-62
2023/11/05 13:37:23;;;;;;;9.93;5.85;;;;;;;;;;5037745;28;20502;-61
2023/11/05 13:39:50;;;;;;;10.75;5.60;;;;;;;;;;5042648;28;20425;-61
2023/11/05 13:42:17;;;;;;;8.50;4.95;;;;;;;;;;5039386;28;20822;-61
2023/11/05 13:44:44;;;;;;;8.30;5.47;;;;;;;;;;5043244;28;20413;-61
2023/11/05 13:47:11;;;;;;;9.68;4.78;;;;;;;;;;5039974;28;20443;-60
2023/11/05 13:49:39;;;;;;;10.18;5.28;;;;;;;;;;5042190;28;20412;-61
2023/11/05 13:52:07;;;;;;;8.77;5.00;;;;;;;;;;5045447;28;20417;-61
2023/11/05 13:54:34;;;;;;;7.88;4.78;;;;;;;;;;5039613;28;20418;-61
2023/11/05 13:57:02;;;;;;;7.65;4.78;;;;;;;;;;5042158;28;20421;-61
2023/11/05 13:59:29;;;;;;;10.73;5.27;;;;;;;;;;5041204;28;20787;-62
2023/11/05 14:01:56;;;;;;;10.50;5.70;;;;;;;;;;5039590;28;20415;-61
2023/11/05 14:04:24;;;;;;;11.77;5.38;;;;;;;;;;5041808;28;20859;-64
2023/11/05 14:06:53;;;;;;;9.30;5.53;;;;;;;;;;5041760;28;20421;-64
2023/11/05 14:09:21;;;;;;;10.20;6.15;;;;;;;;;;5039578;28;20461;-62
2023/11/05 14:11:51;;;;;;;13.23;5.75;;;;;;;;;;5043792;28;20767;-59
2023/11/05 14:14:18;;;;;;;9.40;5.70;;;;;;;;;;5039611;28;20426;-62
2023/11/05 14:16:46;;;;;;;8.75;5.72;;;;;;;;;;5035200;28;20915;-61
2023/11/05 14:19:13;;;;;;;9.18;5.40;;;;;;;;;;5040358;28;20463;-63
2023/11/05 14:21:40;;;;;;;11.10;5.55;;;;;;;;;;5041984;28;20413;-60
2023/11/05 14:24:09;;;;;;;9.83;4.70;;;;;;;;;;5039268;28;20415;-61
2023/11/05 14:26:36;;;;;;;9.85;5.25;;;;;;;;;;5039881;28;20492;-62
2023/11/05 14:29:03;;;;;;;8.88;5.53;;;;;;;;;;5041140;28;20417;-60
2023/11/05 14:31:30;;;;;;;8.07;4.63;;;;;;;;;;5040720;28;20417;-60
2023/11/05 14:33:58;;;;;;;7.10;4.53;;;;;;;;;;5040231;28;20419;-59
2023/11/05 14:36:25;;;;;;;8.57;4.82;;;;;;;;;;5038763;28;20966;-60
2023/11/05 14:38:52;;;;;;;9.25;5.13;;;;;;;;;;5041353;28;20472;-61
2023/11/05 14:41:24;;;;;;;8.02;5.00;;;;;;;;;;5040031;28;20427;-59
2023/11/05 14:43:51;;;;;;;8.63;5.23;;;;;;;;;;5038561;28;20560;-60
2023/11/05 14:46:18;;;;;;;8.68;4.78;;;;;;;;;;5040932;28;20761;-60